Time;durP1;ratioP1;P1;durP2;ratioP2;P2;SDS_P1;SDS_P2;PMS_P1;PMS_P2;Temp;Humidity;BMP_temperature;BMP_pressure;BME280_temperature;BME280_humidity;BME280_pressure;Samples;Min_cycle;Max_cycle;Signal;HPM_P1;HPM_P2
2024/01/11 00:00:01;;;;;;;0.98;0.98;;;;;;;-8.57;100.00;97524.06;4715119;30;20467;-78
2024/01/11 00:02:41;;;;;;;1.08;1.08;;;;;;;-8.53;100.00;97525.38;4714295;30;20061;-79
2024/01/11 00:05:23;;;;;;;0.90;0.90;;;;;;;-8.48;100.00;97512.63;4670277;30;20068;-77
2024/01/11 00:08:04;;;;;;;1.00;1.00;;;;;;;-8.41;100.00;97510.16;4711040;30;20148;-79
2024/01/11 00:10:37;;;;;;;1.00;1.00;;;;;;;-8.39;100.00;97488.06;4721960;30;20508;-78
2024/01/11 00:13:52;;;;;;;0.98;0.98;;;;;;;-8.25;100.00;97473.53;4781674;30;20108;-78
2024/01/11 00:16:44;;;;;;;0.93;0.93;;;;;;;-8.22;100.00;97467.16;4766794;30;20070;-80
2024/01/11 00:19:39;;;;;;;1.08;1.08;;;;;;;-8.20;100.00;97457.31;4763424;30;20229;-78
2024/01/11 00:22:36;;;;;;;1.13;1.13;;;;;;;-8.15;100.00;97434.09;4753722;30;20055;-78
2024/01/11 00:25:40;;;;;;;1.05;1.05;;;;;;;-8.18;100.00;97409.06;4759270;30;20063;-79
2024/01/11 00:28:10;;;;;;;1.00;1.00;;;;;;;-7.99;100.00;97421.00;4765103;30;20063;-79
2024/01/11 00:31:10;;;;;;;0.90;0.90;;;;;;;-7.93;100.00;97409.84;4746856;30;20060;-79
2024/01/11 00:33:56;;;;;;;1.08;1.08;;;;;;;-7.93;100.00;97380.22;4763539;30;20060;-79
2024/01/11 00:36:24;;;;;;;0.88;0.88;;;;;;;-7.97;100.00;97386.78;4750804;30;20159;-78
2024/01/11 00:39:27;;;;;;;1.00;1.00;;;;;;;-7.93;100.00;97362.69;4756763;30;20056;-78
2024/01/11 00:42:11;;;;;;;1.00;1.00;;;;;;;-7.92;100.00;97374.84;4759147;30;20067;-78
2024/01/11 00:44:45;;;;;;;1.00;1.00;;;;;;;-7.89;100.00;97360.59;4791492;29;20052;-79
2024/01/11 00:47:21;;;;;;;0.90;0.90;;;;;;;-7.82;100.00;97350.22;4856503;29;20186;-78
2024/01/11 00:49:57;;;;;;;1.00;1.00;;;;;;;-7.81;100.00;97344.84;4842156;29;20144;-81
2024/01/11 00:52:31;;;;;;;0.80;0.80;;;;;;;-7.79;100.00;97334.19;4813401;29;20096;-81
2024/01/11 00:55:05;;;;;;;1.10;1.10;;;;;;;-7.72;100.00;97337.75;4860355;29;20085;-80
2024/01/11 00:57:58;;;;;;;1.08;1.08;;;;;;;-7.71;100.00;97314.03;4848903;29;20120;-80
2024/01/11 01:01:10;;;;;;;0.80;0.80;;;;;;;-7.64;100.00;97307.13;4853287;29;20053;-80
2024/01/11 01:04:20;;;;;;;0.90;0.90;;;;;;;-7.62;100.00;97288.63;4853986;29;20060;-78
2024/01/11 01:06:50;;;;;;;0.85;0.85;;;;;;;-7.60;100.00;97289.25;4863217;29;20053;-78
2024/01/11 01:09:25;;;;;;;;;;;;;;;-7.61;100.00;97281.56;4831919;29;20084;-78
2024/01/11 01:12:04;;;;;;;1.10;1.10;;;;;;;-7.59;100.00;97277.78;4862736;29;19949;-78
2024/01/11 01:14:33;;;;;;;1.00;1.00;;;;;;;-7.50;100.00;97268.88;4844347;29;20049;-80
2024/01/11 01:17:02;;;;;;;1.00;1.00;;;;;;;-7.49;100.00;97262.66;4859488;29;20062;-79
2024/01/11 01:19:52;;;;;;;0.85;0.85;;;;;;;-7.34;100.00;97254.03;4862748;29;20057;-78
2024/01/11 01:22:29;;;;;;;0.90;0.90;;;;;;;-7.28;100.00;97248.91;4834239;29;20212;-79
2024/01/11 01:25:05;;;;;;;0.70;0.70;;;;;;;-7.25;100.00;97247.75;4859033;29;20057;-79
2024/01/11 01:28:24;;;;;;;0.85;0.85;;;;;;;-7.16;100.00;97219.66;4831254;29;20065;-79
2024/01/11 01:30:56;;;;;;;1.00;1.00;;;;;;;-7.19;100.00;97215.59;4825523;29;20503;-79
2024/01/11 01:33:34;;;;;;;0.85;0.85;;;;;;;-7.18;100.00;97200.69;4826403;29;20137;-78
2024/01/11 01:36:15;;;;;;;0.80;0.80;;;;;;;-7.11;100.00;97196.38;4812422;29;20061;-79
2024/01/11 01:38:57;;;;;;;0.80;0.80;;;;;;;-7.08;100.00;97186.34;4839497;29;20440;-79
2024/01/11 01:41:27;;;;;;;1.00;1.00;;;;;;;-7.00;100.00;97182.84;4840255;29;20058;-78
2024/01/11 01:44:19;;;;;;;0.88;0.88;;;;;;;-6.93;100.00;97172.44;4780006;29;20153;-79
2024/01/11 01:47:00;;;;;;;0.85;0.85;;;;;;;-6.95;100.00;97162.13;4790621;29;20457;-79
2024/01/11 01:49:51;;;;;;;0.80;0.80;;;;;;;-6.89;100.00;97152.72;4786350;30;20055;-79
2024/01/11 01:52:25;;;;;;;1.00;1.00;;;;;;;-6.87;100.00;97145.50;4722258;30;20049;-79
2024/01/11 01:54:55;;;;;;;0.90;0.90;;;;;;;-6.86;100.00;97136.63;4701310;30;20057;-79
2024/01/11 01:57:59;;;;;;;0.80;0.80;;;;;;;-6.78;100.00;97126.06;4745237;30;20084;-80
2024/01/11 02:01:00;;;;;;;0.90;0.90;;;;;;;-6.70;100.00;97125.97;4733232;30;20185;-79
2024/01/11 02:03:56;;;;;;;0.80;0.80;;;;;;;-6.63;100.00;97110.31;4733214;30;20061;-79
2024/01/11 02:06:33;;;;;;;0.80;0.80;;;;;;;-6.59;100.00;97109.75;4749693;30;20071;-78
2024/01/11 02:09:08;;;;;;;0.80;0.80;;;;;;;-6.55;100.00;97104.97;4750660;30;20726;-78
2024/01/11 02:11:55;;;;;;;1.00;1.00;;;;;;;-6.51;100.00;97095.72;4735727;30;20594;-79
2024/01/11 02:14:38;;;;;;;0.80;0.80;;;;;;;-6.49;100.00;97074.56;4736058;30;20060;-79
2024/01/11 02:17:25;;;;;;;0.75;0.75;;;;;;;-6.39;100.00;97083.75;4754966;30;20048;-79
2024/01/11 02:20:22;;;;;;;1.00;1.00;;;;;;;-6.36;100.00;97065.00;4766630;29;20118;-79
2024/01/11 02:23:04;;;;;;;0.73;0.73;;;;;;;-6.27;100.00;97063.09;4833035;29;20049;-79
2024/01/11 02:25:32;;;;;;;1.00;1.00;;;;;;;-6.28;100.00;97040.44;4889099;29;20068;-79
2024/01/11 02:28:11;;;;;;;1.00;1.00;;;;;;;-6.19;100.00;97046.41;4866002;29;20560;-79
2024/01/11 02:30:42;;;;;;;1.13;1.13;;;;;;;-6.12;100.00;97040.22;4881184;29;20193;-79
2024/01/11 02:33:15;;;;;;;0.80;0.80;;;;;;;-6.04;100.00;97043.75;4864846;29;20090;-78
2024/01/11 02:35:54;;;;;;;0.90;0.90;;;;;;;-5.96;100.00;97027.84;4861826;29;20430;-78
2024/01/11 02:38:27;;;;;;;0.95;0.95;;;;;;;-5.93;100.00;97017.72;4847226;29;20065;-78
2024/01/11 02:41:22;;;;;;;0.80;0.80;;;;;;;-5.84;100.00;97015.00;4833178;29;20519;-78
2024/01/11 02:44:21;;;;;;;0.80;0.80;;;;;;;-5.77;100.00;97006.16;4808992;29;20053;-79
2024/01/11 02:47:09;;;;;;;0.88;0.88;;;;;;;-5.69;100.00;97002.59;4788596;29;20423;-77
2024/01/11 02:49:55;;;;;;;0.95;0.95;;;;;;;-5.70;100.00;96974.66;4803522;29;20050;-78
2024/01/11 02:52:33;;;;;;;0.90;0.90;;;;;;;-5.58;100.00;96982.84;4790495;29;20134;-78
2024/01/11 02:55:24;;;;;;;1.00;1.00;;;;;;;-5.55;100.00;96978.00;4788504;29;20058;-79
2024/01/11 02:57:55;;;;;;;0.90;0.90;;;;;;;-5.48;100.00;96972.81;4800210;29;20548;-79
2024/01/11 03:00:39;;;;;;;1.00;1.00;;;;;;;-5.42;100.00;96969.38;4757335;30;20055;-79
2024/01/11 03:03:31;;;;;;;0.80;0.80;;;;;;;-5.35;100.00;96966.81;4785351;30;20059;-80
2024/01/11 03:06:05;;;;;;;1.00;1.00;;;;;;;-5.27;100.00;96954.31;4785055;30;20059;-80
2024/01/11 03:09:03;;;;;;;0.80;0.80;;;;;;;-5.20;100.00;96948.28;4784088;30;20088;-79
2024/01/11 03:11:31;;;;;;;1.08;1.08;;;;;;;-5.21;100.00;96936.97;4784918;30;20530;-79
2024/01/11 03:14:04;;;;;;;0.98;0.98;;;;;;;-5.08;100.00;96952.00;4736968;30;20090;-79
2024/01/11 03:16:52;;;;;;;0.90;0.90;;;;;;;-5.00;100.00;96936.03;4757026;30;20118;-78
2024/01/11 03:19:40;;;;;;;1.00;1.00;;;;;;;-4.85;100.00;96926.16;4785132;30;20056;-80
2024/01/11 03:22:26;;;;;;;1.00;1.00;;;;;;;-4.75;100.00;96923.16;4770400;30;20056;-79
2024/01/11 03:25:13;;;;;;;0.98;0.98;;;;;;;-4.64;100.00;96912.06;4770554;30;20051;-79
2024/01/11 03:28:05;;;;;;;0.80;0.80;;;;;;;-4.48;100.00;96910.06;4785261;29;20060;-79
2024/01/11 03:31:01;;;;;;;1.00;1.00;;;;;;;-4.34;100.00;96900.38;4769503;30;20146;-78
2024/01/11 03:33:41;;;;;;;1.00;1.00;;;;;;;-4.21;100.00;96895.91;4781298;29;20099;-79
2024/01/11 03:36:28;;;;;;;1.08;1.08;;;;;;;-3.99;100.00;96898.34;4819405;29;20079;-80
2024/01/11 03:39:04;;;;;;;1.10;1.10;;;;;;;-3.78;100.00;96894.66;4776486;29;20128;-79
2024/01/11 03:41:52;;;;;;;1.10;1.10;;;;;;;-3.65;100.00;96889.38;4803750;29;20077;-78
2024/01/11 03:44:24;;;;;;;1.00;1.00;;;;;;;-3.55;100.00;96867.84;4773172;29;20052;-79
2024/01/11 03:47:07;;;;;;;1.00;1.00;;;;;;;-3.42;100.00;96867.00;4766994;29;20062;-79
2024/01/11 03:50:10;;;;;;;0.90;0.90;;;;;;;-3.22;100.00;96859.81;4812701;29;20200;-79
2024/01/11 03:52:48;;;;;;;0.90;0.90;;;;;;;-3.12;100.00;96873.38;4823819;29;20059;-80
2024/01/11 03:55:44;;;;;;;1.05;1.05;;;;;;;-2.97;100.00;96853.84;4793764;29;20667;-79
2024/01/11 03:58:33;;;;;;;0.93;0.93;;;;;;;-2.96;100.00;96855.44;4792722;29;20116;-80
2024/01/11 04:01:32;;;;;;;1.10;1.10;;;;;;;-2.97;100.00;96843.28;4794614;29;20191;-80
2024/01/11 04:04:45;;;;;;;0.98;0.98;;;;;;;-2.87;100.00;96841.78;4805723;29;20054;-79
2024/01/11 04:07:18;;;;;;;1.10;1.10;;;;;;;-2.85;100.00;96836.31;4828477;29;20068;-80
2024/01/11 04:10:04;;;;;;;0.98;0.98;;;;;;;-2.76;100.00;96834.22;4825194;29;20066;-80
2024/01/11 04:12:51;;;;;;;1.08;1.08;;;;;;;-2.71;100.00;96831.75;4842698;29;20054;-82
2024/01/11 04:15:51;;;;;;;1.10;1.10;;;;;;;-2.64;100.00;96830.69;4826951;29;20077;-79
2024/01/11 04:18:25;;;;;;;1.13;1.13;;;;;;;-2.65;100.00;96823.78;4809824;29;20062;-80
2024/01/11 04:21:03;;;;;;;1.05;1.05;;;;;;;-2.66;100.00;96821.34;4810333;29;20161;-82
2024/01/11 04:23:40;;;;;;;1.00;1.00;;;;;;;-2.68;100.00;96828.69;4815420;29;20054;-80
2024/01/11 04:26:24;;;;;;;1.00;1.00;;;;;;;-2.65;100.00;96820.34;4823022;29;20147;-79
2024/01/11 04:28:53;;;;;;;0.90;0.90;;;;;;;-2.64;100.00;96827.22;4793440;29;20062;-80
2024/01/11 04:31:24;;;;;;;0.80;0.80;;;;;;;-2.61;100.00;96818.88;4822742;29;20062;-80
2024/01/11 04:33:52;;;;;;;0.80;0.80;;;;;;;-2.60;100.00;96819.72;4818755;29;20102;-80
2024/01/11 04:36:19;;;;;;;0.95;0.95;;;;;;;-2.62;100.00;96810.16;4825071;29;20141;-79
2024/01/11 04:38:48;;;;;;;0.90;0.90;;;;;;;-2.58;100.00;96823.75;4822370;29;20564;-83
2024/01/11 04:41:19;;;;;;;1.00;1.00;;;;;;;-2.59;100.00;96808.91;4809050;29;20092;-85
2024/01/11 04:43:50;;;;;;;1.25;1.15;;;;;;;-2.55;100.00;96819.88;4841395;29;20504;-81
2024/01/11 04:46:20;;;;;;;0.98;0.98;;;;;;;-2.49;100.00;96800.53;4853917;29;20617;-80
2024/01/11 04:48:49;;;;;;;1.08;1.08;;;;;;;-2.48;100.00;96800.31;4859719;29;20141;-79
2024/01/11 04:51:17;;;;;;;1.00;1.00;;;;;;;-2.49;100.00;96801.31;4874004;29;20060;-79
2024/01/11 04:53:47;;;;;;;0.90;0.90;;;;;;;-2.46;100.00;96781.59;4867107;29;20538;-81
2024/01/11 04:56:19;;;;;;;1.02;1.02;;;;;;;-2.46;100.00;96800.09;4872165;29;20076;-79
2024/01/11 04:58:47;;;;;;;1.00;1.00;;;;;;;-2.36;100.00;96792.47;4874344;29;20148;-79
2024/01/11 05:01:16;;;;;;;1.00;1.00;;;;;;;-2.39;100.00;96782.34;4888176;29;20056;-79
2024/01/11 05:03:47;;;;;;;1.10;1.10;;;;;;;-2.36;100.00;96775.81;4863402;29;20434;-78
2024/01/11 05:06:19;;;;;;;1.00;1.00;;;;;;;-2.36;100.00;96771.34;4892455;29;20416;-79
2024/01/11 05:08:47;;;;;;;1.30;1.20;;;;;;;-2.32;100.00;96782.31;4860073;29;20077;-79
2024/01/11 05:11:20;;;;;;;1.00;1.00;;;;;;;-2.34;100.00;96750.00;4873515;29;20590;-79
2024/01/11 05:13:48;;;;;;;1.10;1.10;;;;;;;-2.32;100.00;96764.63;4878071;29;20096;-79
2024/01/11 05:16:27;;;;;;;1.15;1.15;;;;;;;-2.29;100.00;96764.16;4862218;29;20105;-79
2024/01/11 05:18:55;;;;;;;0.90;0.90;;;;;;;-2.30;100.00;96754.63;4893410;29;20057;-79
2024/01/11 05:21:26;;;;;;;1.00;1.00;;;;;;;-2.16;100.00;96751.88;4878827;29;20049;-80
2024/01/11 05:23:54;;;;;;;0.98;0.98;;;;;;;-2.12;100.00;96755.69;4878091;29;20510;-80
2024/01/11 05:26:22;;;;;;;1.20;1.10;;;;;;;-2.12;100.00;96742.47;4879394;29;20049;-80
2024/01/11 05:28:50;;;;;;;0.95;0.95;;;;;;;-2.07;100.00;96754.00;4878375;29;20052;-80
2024/01/11 05:31:17;;;;;;;0.98;0.98;;;;;;;-1.99;100.00;96745.78;4878507;29;20044;-80
2024/01/11 05:33:48;;;;;;;0.80;0.80;;;;;;;-1.98;100.00;96743.94;4878178;29;20506;-79
2024/01/11 05:36:16;;;;;;;1.10;1.10;;;;;;;-1.99;100.00;96745.78;4878304;29;20052;-79
2024/01/11 05:38:44;;;;;;;1.02;1.02;;;;;;;-2.05;100.00;96733.47;4879550;29;20089;-79
2024/01/11 05:41:12;;;;;;;1.10;1.10;;;;;;;-2.00;100.00;96738.88;4879252;29;20053;-80
2024/01/11 05:43:42;;;;;;;1.23;1.20;;;;;;;-1.94;100.00;96741.69;4878056;29;20049;-79
2024/01/11 05:46:10;;;;;;;0.88;0.88;;;;;;;-1.90;100.00;96732.25;4878404;29;20061;-79
2024/01/11 05:48:43;;;;;;;0.90;0.90;;;;;;;-1.89;100.00;96728.59;4879305;29;20068;-78
2024/01/11 05:51:12;;;;;;;1.00;1.00;;;;;;;-1.86;100.00;96734.25;4877269;29;20474;-78
2024/01/11 05:53:39;;;;;;;1.00;1.00;;;;;;;-1.86;100.00;96722.88;4862683;29;20067;-81
2024/01/11 05:56:08;;;;;;;0.90;0.90;;;;;;;-1.83;100.00;96727.72;4878401;29;20477;-80
2024/01/11 05:58:39;;;;;;;1.00;1.00;;;;;;;-1.84;100.00;96726.91;4879637;29;20064;-79
2024/01/11 06:01:06;;;;;;;0.90;0.90;;;;;;;-1.85;100.00;96719.19;4879631;29;20105;-79
2024/01/11 06:03:34;;;;;;;1.10;1.10;;;;;;;-1.80;100.00;96717.53;4876596;29;20092;-79
2024/01/11 06:06:03;;;;;;;0.90;0.90;;;;;;;-1.81;100.00;96717.72;4893281;29;20080;-80
2024/01/11 06:08:31;;;;;;;0.95;0.95;;;;;;;-1.76;100.00;96713.38;4877508;29;20064;-79
2024/01/11 06:10:58;;;;;;;1.08;1.08;;;;;;;-1.73;100.00;96713.97;4862145;29;20135;-78
2024/01/11 06:13:26;;;;;;;0.90;0.90;;;;;;;-1.69;100.00;96712.50;4870732;29;20061;-79
2024/01/11 06:15:53;;;;;;;1.05;1.05;;;;;;;-1.70;100.00;96697.66;4867216;29;20133;-78
2024/01/11 06:18:21;;;;;;;1.10;1.10;;;;;;;-1.70;100.00;96706.41;4897269;29;20061;-79
2024/01/11 06:20:51;;;;;;;1.10;1.10;;;;;;;-1.73;100.00;96698.09;4894475;29;20052;-79
2024/01/11 06:23:25;;;;;;;1.05;1.05;;;;;;;-1.69;100.00;96704.59;4885578;29;20049;-79
2024/01/11 06:25:52;;;;;;;0.95;0.95;;;;;;;-1.68;100.00;96692.97;4876227;29;20065;-78
2024/01/11 06:28:23;;;;;;;1.10;1.10;;;;;;;-1.63;100.00;96688.59;4845570;29;20085;-81
2024/01/11 06:31:22;;;;;;;1.10;1.10;;;;;;;-1.63;100.00;96695.75;4865470;29;20533;-80
2024/01/11 06:33:50;;;;;;;1.10;1.10;;;;;;;-1.63;100.00;96695.75;4843433;29;20049;-79
2024/01/11 06:36:18;;;;;;;1.00;1.00;;;;;;;-1.64;100.00;96683.56;4863896;29;20100;-80
2024/01/11 06:38:45;;;;;;;0.95;0.95;;;;;;;-1.54;100.00;96681.19;4884908;29;20047;-79
2024/01/11 06:41:14;;;;;;;1.10;1.10;;;;;;;-1.52;100.00;96687.03;4871285;29;20049;-79
2024/01/11 06:43:41;;;;;;;1.00;1.00;;;;;;;-1.52;100.00;96681.75;4873008;29;20143;-80
2024/01/11 06:46:26;;;;;;;0.88;0.88;;;;;;;-1.50;100.00;96690.28;4901525;29;20053;-79
2024/01/11 06:48:54;;;;;;;1.00;1.00;;;;;;;-1.55;100.00;96676.91;4872272;29;20528;-80
2024/01/11 06:51:22;;;;;;;1.23;1.20;;;;;;;-1.54;100.00;96671.41;4865901;29;20447;-78
2024/01/11 06:53:50;;;;;;;1.05;1.05;;;;;;;-1.46;100.00;96680.88;4877176;29;20050;-79
2024/01/11 06:56:19;;;;;;;1.30;1.20;;;;;;;-1.41;100.00;96666.97;4871099;29;20053;-80
2024/01/11 06:58:47;;;;;;;1.10;1.10;;;;;;;-1.36;100.00;96675.03;4873508;29;20045;-80
2024/01/11 07:01:14;;;;;;;1.02;1.02;;;;;;;-1.40;100.00;96669.38;4881277;29;20131;-80
2024/01/11 07:03:43;;;;;;;1.10;1.10;;;;;;;-1.33;100.00;96675.38;4900348;29;20538;-80
2024/01/11 07:06:12;;;;;;;1.08;1.08;;;;;;;-1.21;100.00;96671.97;4878182;29;20161;-80
2024/01/11 07:08:44;;;;;;;1.08;1.08;;;;;;;-1.16;100.00;96664.16;4884562;29;20506;-79
2024/01/11 07:11:11;;;;;;;1.00;1.00;;;;;;;-1.11;100.00;96674.88;4867621;29;20072;-80
2024/01/11 07:13:39;;;;;;;0.90;0.90;;;;;;;-0.99;100.00;96669.59;4881840;29;20530;-80
2024/01/11 07:16:06;;;;;;;1.25;1.17;;;;;;;-0.96;100.00;96663.81;4861700;29;20109;-79
2024/01/11 07:18:33;;;;;;;1.30;1.20;;;;;;;-0.97;100.00;96657.72;4876424;29;20267;-79
2024/01/11 07:21:02;;;;;;;1.10;1.10;;;;;;;-0.95;100.00;96650.38;4846745;29;20682;-79
2024/01/11 07:23:29;;;;;;;1.00;1.00;;;;;;;-0.96;100.00;96666.47;4872252;29;20510;-80
2024/01/11 07:25:58;;;;;;;1.10;1.10;;;;;;;-1.06;100.00;96656.47;4862416;29;20121;-81
2024/01/11 07:28:28;;;;;;;0.95;0.95;;;;;;;-1.04;100.00;96650.94;4861911;29;20049;-81
2024/01/11 07:31:40;;;;;;;1.10;1.10;;;;;;;-1.03;100.00;96656.00;4862951;29;20049;-82
2024/01/11 07:34:18;;;;;;;1.13;1.13;;;;;;;-1.13;100.00;96655.75;4865091;29;20116;-82
2024/01/11 07:36:53;;;;;;;1.10;1.10;;;;;;;-1.11;100.00;96656.34;4832479;29;20538;-81
2024/01/11 07:39:30;;;;;;;1.13;1.13;;;;;;;-1.04;100.00;96648.28;4860850;29;20049;-83
2024/01/11 07:42:20;;;;;;;1.10;1.10;;;;;;;-1.12;100.00;96636.19;4847932;29;20056;-79
2024/01/11 07:45:01;;;;;;;0.90;0.90;;;;;;;-1.09;100.00;96641.03;4844415;29;20042;-80
2024/01/11 07:47:56;;;;;;;1.10;1.10;;;;;;;-1.09;100.00;96635.72;4843020;29;20533;-82
2024/01/11 07:50:51;;;;;;;0.82;0.82;;;;;;;-1.00;100.00;96623.78;4822646;29;20053;-81
2024/01/11 07:53:25;;;;;;;1.10;1.10;;;;;;;-0.96;100.00;96632.06;4850014;29;20062;-82
2024/01/11 07:55:53;;;;;;;1.00;1.00;;;;;;;-0.91;100.00;96626.91;4822044;29;20054;-80
2024/01/11 07:58:27;;;;;;;1.10;1.10;;;;;;;-0.88;100.00;96619.31;4840276;29;20110;-80
2024/01/11 08:01:00;;;;;;;1.25;1.20;;;;;;;-0.87;100.00;96620.91;4837697;29;20061;-82
2024/01/11 08:03:28;;;;;;;1.10;1.10;;;;;;;-0.89;100.00;96612.41;4835782;29;20045;-81
2024/01/11 08:06:05;;;;;;;1.30;1.20;;;;;;;-0.73;100.00;96616.19;4855271;29;20062;-82
2024/01/11 08:08:32;;;;;;;1.27;1.20;;;;;;;-0.58;100.00;96606.94;4854102;29;20118;-81
2024/01/11 08:11:00;;;;;;;1.10;1.10;;;;;;;-0.57;100.00;96603.28;4837982;29;20049;-81
2024/01/11 08:13:28;;;;;;;1.27;1.20;;;;;;;-0.62;100.00;96590.72;4839950;29;20065;-81
2024/01/11 08:15:55;;;;;;;1.05;1.05;;;;;;;-0.65;100.00;96599.16;4840502;29;20137;-82
2024/01/11 08:18:23;;;;;;;1.27;1.20;;;;;;;-0.62;100.00;96593.38;4839920;29;20524;-82
2024/01/11 08:20:51;;;;;;;1.15;1.15;;;;;;;-0.53;100.00;96591.16;4824002;29;20054;-82
2024/01/11 08:23:18;;;;;;;1.20;1.20;;;;;;;-0.49;100.00;96581.72;4844196;29;20050;-81
2024/01/11 08:25:45;;;;;;;1.10;1.10;;;;;;;-0.50;100.00;96588.06;4860912;29;20547;-81
2024/01/11 08:28:16;;;;;;;1.00;1.00;;;;;;;-0.60;100.00;96583.34;4822817;29;20522;-82
2024/01/11 08:30:53;;;;;;;1.02;1.02;;;;;;;-0.58;100.00;96583.94;4853628;29;20057;-82
2024/01/11 08:33:23;;;;;;;1.02;1.02;;;;;;;-0.68;100.00;96575.78;4879607;29;20522;-81
2024/01/11 08:35:51;;;;;;;1.10;1.10;;;;;;;-0.77;100.00;96582.44;4883969;29;20056;-81
2024/01/11 08:38:18;;;;;;;0.75;0.75;;;;;;;-0.84;100.00;96579.91;4880713;29;20057;-81
2024/01/11 08:40:46;;;;;;;1.20;1.20;;;;;;;-0.90;100.00;96575.53;4838326;29;20395;-81
2024/01/11 08:43:13;;;;;;;1.10;1.10;;;;;;;-0.96;100.00;96563.22;4862796;29;20057;-81
2024/01/11 08:45:41;;;;;;;1.30;1.20;;;;;;;-0.89;100.00;96575.34;4861280;29;20049;-81
2024/01/11 08:48:10;;;;;;;1.00;1.00;;;;;;;-0.87;100.00;96575.88;4846335;29;20546;-82
2024/01/11 08:50:38;;;;;;;1.00;1.00;;;;;;;-0.84;100.00;96565.88;4860881;29;20109;-82
2024/01/11 08:53:05;;;;;;;1.00;1.00;;;;;;;-0.92;100.00;96557.22;4876335;29;20049;-81
2024/01/11 08:55:33;;;;;;;1.08;1.08;;;;;;;-1.01;100.00;96561.28;4872654;29;20472;-82
2024/01/11 08:58:00;;;;;;;1.30;1.20;;;;;;;-1.04;100.00;96556.41;4876005;29;20061;-81
2024/01/11 09:00:28;;;;;;;1.00;1.00;;;;;;;-1.04;100.00;96559.06;4857905;29;20177;-81
2024/01/11 09:02:55;;;;;;;1.00;1.00;;;;;;;-1.09;100.00;96561.59;4858657;29;20041;-81
2024/01/11 09:05:22;;;;;;;1.20;1.15;;;;;;;-1.08;100.00;96560.59;4871981;29;20569;-82
2024/01/11 09:07:50;;;;;;;1.10;1.10;;;;;;;-1.02;100.00;96557.00;4870060;29;20093;-81
2024/01/11 09:10:20;;;;;;;1.00;1.00;;;;;;;-1.07;100.00;96548.94;4876618;29;20052;-84
2024/01/11 09:12:48;;;;;;;0.90;0.90;;;;;;;-1.12;100.00;96528.47;4859857;29;20057;-82
2024/01/11 09:15:19;;;;;;;1.05;1.05;;;;;;;-1.18;100.00;96539.19;4874738;29;20056;-80
2024/01/11 09:17:46;;;;;;;1.10;1.10;;;;;;;-1.14;100.00;96550.91;4859295;29;20063;-80
2024/01/11 09:20:14;;;;;;;0.93;0.93;;;;;;;-1.23;100.00;96533.78;4877905;29;20483;-80
2024/01/11 09:22:43;;;;;;;1.00;1.00;;;;;;;-1.25;100.00;96530.53;4877553;29;20061;-80
2024/01/11 09:25:53;;;;;;;1.17;1.17;;;;;;;-1.45;100.00;96608.38;4865916;29;20550;-81
2024/01/11 09:28:36;;;;;;;0.90;0.90;;;;;;;-2.09;100.00;96609.88;4850098;29;20076;-81
2024/01/11 09:31:04;;;;;;;1.17;1.10;;;;;;;-2.46;100.00;96636.31;4876033;29;20056;-80
2024/01/11 09:33:32;;;;;;;1.10;1.10;;;;;;;-2.85;100.00;96639.13;4875771;29;20559;-80
2024/01/11 09:36:02;;;;;;;1.10;1.10;;;;;;;-3.12;100.00;96635.09;4860276;29;20060;-79
2024/01/11 09:38:44;;;;;;;1.02;1.02;;;;;;;-3.28;100.00;96633.81;4844643;29;20088;-81
2024/01/11 09:41:13;;;;;;;0.90;0.90;;;;;;;-3.25;100.00;96617.53;4859972;29;20061;-80
2024/01/11 09:43:42;;;;;;;1.02;1.02;;;;;;;-3.26;100.00;96623.84;4859789;29;20049;-80
2024/01/11 09:46:10;;;;;;;1.00;1.00;;;;;;;-3.16;100.00;96632.09;4859885;29;20108;-81
2024/01/11 09:48:39;;;;;;;1.35;1.25;;;;;;;-3.06;100.00;96624.50;4875001;29;20545;-81
2024/01/11 09:51:16;;;;;;;1.00;1.00;;;;;;;-2.99;100.00;96623.63;4844986;29;20180;-80
2024/01/11 09:53:47;;;;;;;1.02;1.02;;;;;;;-2.87;100.00;96630.63;4859720;29;20133;-81
2024/01/11 09:56:16;;;;;;;0.98;0.98;;;;;;;-2.78;100.00;96640.91;4876431;29;20057;-82
2024/01/11 09:58:50;;;;;;;1.27;1.20;;;;;;;-2.77;100.00;96626.69;4879198;29;20064;-81
2024/01/11 10:01:17;;;;;;;1.10;1.10;;;;;;;-2.77;100.00;96631.97;4876315;29;20071;-81
2024/01/11 10:03:47;;;;;;;1.30;1.20;;;;;;;-2.66;100.00;96637.34;4876273;29;20403;-80
2024/01/11 10:06:17;;;;;;;0.93;0.93;;;;;;;-2.49;100.00;96636.75;4878304;29;20064;-81
2024/01/11 10:08:44;;;;;;;1.05;1.05;;;;;;;-2.64;100.00;96658.22;4877555;29;20053;-81
2024/01/11 10:11:11;;;;;;;1.10;1.10;;;;;;;-2.70;100.00;96659.91;4876803;29;20594;-80
2024/01/11 10:13:39;;;;;;;0.90;0.90;;;;;;;-2.67;100.00;96654.19;4877905;29;20392;-80
2024/01/11 10:16:09;;;;;;;0.98;0.98;;;;;;;-2.66;100.00;96676.13;4878955;29;20061;-80
2024/01/11 10:18:37;;;;;;;1.13;1.13;;;;;;;-2.67;100.00;96685.06;4878024;29;20061;-80
2024/01/11 10:21:06;;;;;;;1.13;1.13;;;;;;;-2.78;98.72;96680.53;4877835;29;20469;-81
2024/01/11 10:23:34;;;;;;;1.10;1.10;;;;;;;-2.82;97.06;96682.75;4877377;29;20494;-81
2024/01/11 10:26:02;;;;;;;1.02;1.02;;;;;;;-2.95;94.42;96682.88;4875274;29;20056;-81
2024/01/11 10:28:29;;;;;;;1.00;1.00;;;;;;;-3.13;91.34;96676.50;4860559;29;20140;-81
2024/01/11 10:31:09;;;;;;;1.10;1.10;;;;;;;-3.22;89.31;96703.38;4876294;29;20419;-81
2024/01/11 10:33:37;;;;;;;1.07;1.07;;;;;;;-3.29;88.19;96716.63;4878196;29;20048;-80
2024/01/11 10:36:07;;;;;;;1.00;1.00;;;;;;;-3.27;87.85;96717.19;4876524;29;20053;-81
2024/01/11 10:38:37;;;;;;;1.10;1.10;;;;;;;-3.20;87.50;96719.78;4846469;29;20061;-80
2024/01/11 10:41:07;;;;;;;1.30;1.20;;;;;;;-3.30;86.33;96722.91;4859707;29;20064;-81
2024/01/11 10:43:38;;;;;;;1.05;1.05;;;;;;;-3.42;84.85;96729.84;4855160;29;20442;-81
2024/01/11 10:46:07;;;;;;;1.05;1.05;;;;;;;-3.65;81.34;96731.19;4856734;29;20168;-80
2024/01/11 10:48:42;;;;;;;1.10;1.10;;;;;;;-3.85;81.33;96730.47;4826368;29;20075;-80
2024/01/11 10:51:12;;;;;;;1.10;1.10;;;;;;;-3.93;79.88;96742.03;4838229;29;20052;-80
2024/01/11 10:53:47;;;;;;;1.40;1.30;;;;;;;-4.04;79.22;96753.22;4847487;29;20062;-81
2024/01/11 10:56:17;;;;;;;1.10;1.10;;;;;;;-4.08;79.25;96763.34;4846035;29;20054;-80
2024/01/11 10:58:46;;;;;;;1.10;1.10;;;;;;;-4.12;79.21;96772.72;4831360;29;20053;-80
2024/01/11 11:01:15;;;;;;;1.40;1.30;;;;;;;-4.16;79.07;96771.50;4850164;29;20141;-79
2024/01/11 11:03:44;;;;;;;1.27;1.20;;;;;;;-4.23;79.04;96786.50;4822873;29;20049;-81
2024/01/11 11:06:12;;;;;;;1.00;1.00;;;;;;;-4.21;79.53;96800.28;4812701;29;20058;-80
2024/01/11 11:08:41;;;;;;;1.17;1.17;;;;;;;-4.25;79.65;96814.88;4837198;29;20152;-80
2024/01/11 11:11:09;;;;;;;1.40;1.30;;;;;;;-4.44;79.12;96819.13;4824321;29;20496;-80
2024/01/11 11:13:47;;;;;;;1.42;1.33;;;;;;;-4.54;79.97;96835.31;4862584;29;20506;-80
2024/01/11 11:16:17;;;;;;;1.35;1.25;;;;;;;-4.80;78.68;96852.69;4875457;29;20470;-80
2024/01/11 11:18:52;;;;;;;1.25;1.17;;;;;;;-5.00;78.50;96849.22;4869795;29;20072;-79
2024/01/11 11:21:21;;;;;;;0.90;0.90;;;;;;;-5.11;78.32;96858.50;4871386;29;20053;-80
2024/01/11 11:23:49;;;;;;;1.00;1.00;;;;;;;-5.24;77.78;96879.50;4866679;29;20100;-80
2024/01/11 11:26:20;;;;;;;0.95;0.95;;;;;;;-5.52;76.63;96869.03;4873946;29;20469;-82
2024/01/11 11:28:51;;;;;;;1.30;1.20;;;;;;;-5.79;74.33;96882.03;4873574;29;20449;-80
2024/01/11 11:31:38;;;;;;;0.85;0.85;;;;;;;-5.83;74.22;96886.06;4890420;29;20060;-80
2024/01/11 11:34:06;;;;;;;1.10;1.10;;;;;;;-5.88;73.81;96891.06;4876058;29;20414;-80
2024/01/11 11:36:35;;;;;;;1.30;1.20;;;;;;;-6.03;72.28;96896.44;4869144;29;20048;-82
2024/01/11 11:39:03;;;;;;;1.02;1.02;;;;;;;-6.17;71.47;96897.38;4858453;29;20418;-82
2024/01/11 11:41:32;;;;;;;1.13;1.13;;;;;;;-6.20;71.28;96893.31;4879287;29;20053;-81
2024/01/11 11:44:04;;;;;;;1.00;1.00;;;;;;;-6.25;70.78;96915.88;4880170;29;20073;-80
2024/01/11 11:46:33;;;;;;;1.10;1.10;;;;;;;-6.30;70.89;96939.25;4882472;29;20415;-81
2024/01/11 11:49:00;;;;;;;1.00;1.00;;;;;;;-6.33;71.46;96938.66;4878757;29;20056;-81
2024/01/11 11:51:29;;;;;;;1.00;1.00;;;;;;;-6.22;71.85;96942.56;4879000;29;20426;-80
2024/01/11 11:53:57;;;;;;;1.10;1.10;;;;;;;-6.22;71.36;96950.44;4897953;29;20117;-81
2024/01/11 11:56:24;;;;;;;1.02;1.02;;;;;;;-6.32;71.18;96961.25;4877143;29;20051;-80
2024/01/11 11:58:54;;;;;;;1.02;1.02;;;;;;;-6.28;71.39;96955.63;4875783;29;20060;-81
2024/01/11 12:01:23;;;;;;;1.10;1.10;;;;;;;-6.40;71.21;96978.97;4867748;29;20053;-80
2024/01/11 12:03:50;;;;;;;1.10;1.10;;;;;;;-6.61;72.31;96983.19;4879156;29;20143;-81